首页
METAR-TAF:

METAR-TAF

机场 :

Wadesboro, 北卡罗来纳州, 美国

纬度: 35-01-14N, 经度: 080-04-38W, 海拔: 91米

当前天气观测

该预报发布于22分钟前的01:50 UTC
风速8节,风向南转西南,在西南之间变化
温度 24°C
湿度 78%
气压 1016 hPa
能見度: 8.0公里
散云层高于1100英尺
散云层高于2000英尺
多云层高于3400英尺
大雨

METAR: KAFP 220150Z AUTO 20008KT 170V230 5SM +RA SCT011 SCT020 BKN034 24/20 A3001 RMK AO2 P0005 T02400202

时间: 22:12 (02:12 UTC)


TAF: 丢失

超过4000个机场的气象观测和天气预报(METAR&TAF报告)。

可查询的气象台以黄色和红色小点在地图上表示。

将鼠标移到小点上方,可查看气象台名称。

然后点击查看天气观测和预报。

如需切换地图:点击带黑十字的绿色按钮放大地图;点击带横线的绿色按钮缩小地图;或者点击绿色箭头查看邻近地区的地图。


METAR-TAF: